createdAt,value
2023-02-15T15:09:28.087Z,4.80
2023-02-15T15:12:13.614Z,4.70
2023-02-15T15:14:43.512Z,4.70
2023-02-15T15:17:13.898Z,4.60
2023-02-15T15:20:20.618Z,4.60
2023-02-15T15:22:48.485Z,4.50
2023-02-15T15:25:53.206Z,4.50
2023-02-15T15:28:59.965Z,4.50
2023-02-15T15:31:46.791Z,4.40
2023-02-15T15:34:42.941Z,4.30
2023-02-15T15:37:42.058Z,4.30
2023-02-15T15:40:48.882Z,4.10
2023-02-15T15:43:55.629Z,4.10
2023-02-15T15:47:02.350Z,4.10
2023-02-15T15:49:32.023Z,4.00
2023-02-15T15:52:02.696Z,3.80
2023-02-15T15:54:30.161Z,3.80
2023-02-15T15:57:02.090Z,3.70
2023-02-15T15:59:32.985Z,3.60
2023-02-15T16:02:11.895Z,3.60
2023-02-15T16:04:38.896Z,3.60
2023-02-15T16:07:27.163Z,3.50
2023-02-15T16:10:05.879Z,3.40
2023-02-15T16:12:35.926Z,3.40
2023-02-15T16:15:14.478Z,3.40
2023-02-15T16:17:45.218Z,3.30
2023-02-15T16:20:31.530Z,3.20
2023-02-15T16:23:30.840Z,3.20
2023-02-15T16:26:37.580Z,3.10
2023-02-15T16:29:14.609Z,3.10
2023-02-15T16:31:41.713Z,3.00
2023-02-15T16:34:18.263Z,3.00
2023-02-15T16:36:45.277Z,2.90
2023-02-15T16:39:20.460Z,2.90
2023-02-15T16:41:49.523Z,2.80
2023-02-15T16:44:20.394Z,2.80
2023-02-15T16:46:51.015Z,2.70
2023-02-15T16:49:23.143Z,2.70
2023-02-15T16:52:08.112Z,2.70
2023-02-15T16:54:36.508Z,2.60
2023-02-15T16:57:04.027Z,2.60
2023-02-15T16:59:51.820Z,2.50
2023-02-15T17:02:43.152Z,2.60
2023-02-15T17:05:33.491Z,2.50
2023-02-15T17:08:40.166Z,2.40
2023-02-15T17:11:12.572Z,2.40
2023-02-15T17:13:40.627Z,2.40
2023-02-15T17:16:29.336Z,2.30
2023-02-15T17:18:59.506Z,2.20
2023-02-15T17:21:33.842Z,2.20
2023-02-15T17:24:05.099Z,2.20
2023-02-15T17:26:35.666Z,2.10
2023-02-15T17:29:18.629Z,2.10
2023-02-15T17:31:50.059Z,2.10
2023-02-15T17:34:47.557Z,2.10
2023-02-15T17:37:44.079Z,2.00
2023-02-15T17:40:33.541Z,2.00
2023-02-15T17:43:01.687Z,1.90
2023-02-15T17:45:36.254Z,1.80
2023-02-15T17:48:05.612Z,1.80
2023-02-15T17:50:33.406Z,1.70
2023-02-15T17:53:02.164Z,1.70
2023-02-15T17:55:36.683Z,1.70
2023-02-15T17:58:06.736Z,1.70
2023-02-15T18:00:56.992Z,1.60
2023-02-15T18:03:45.605Z,1.60
2023-02-15T18:06:34.360Z,1.60
2023-02-15T18:09:21.202Z,1.50
2023-02-15T18:11:50.054Z,1.50
2023-02-15T18:14:17.169Z,1.50
2023-02-15T18:16:45.843Z,1.40
2023-02-15T18:19:18.224Z,1.40
2023-02-15T18:21:46.485Z,1.40
2023-02-15T18:24:18.043Z,1.30
2023-02-15T18:26:45.501Z,1.30
2023-02-15T18:29:12.985Z,1.30
2023-02-15T18:31:40.689Z,1.30
2023-02-15T18:34:20.924Z,1.20
2023-02-15T18:36:48.628Z,1.20
2023-02-15T18:39:45.793Z,1.40
2023-02-15T18:42:31.643Z,1.30
2023-02-15T18:45:01.101Z,1.40
2023-02-15T18:47:28.023Z,1.40
2023-02-15T18:49:55.280Z,1.40
2023-02-15T18:52:26.470Z,1.40
2023-02-15T18:54:59.912Z,1.40
2023-02-15T18:57:27.991Z,1.50
2023-02-15T18:59:54.987Z,1.60
2023-02-15T19:02:22.113Z,1.60
2023-02-15T19:04:50.193Z,1.70
2023-02-15T19:07:28.107Z,1.70
2023-02-15T19:09:58.878Z,1.70
2023-02-15T19:12:28.074Z,1.70
2023-02-15T19:14:56.762Z,1.70
2023-02-15T19:17:24.555Z,1.70
2023-02-15T19:19:52.816Z,1.70
2023-02-15T19:22:28.292Z,1.70
2023-02-15T19:25:00.818Z,1.70
2023-02-15T19:27:36.166Z,1.70
2023-02-15T19:30:04.960Z,1.70
2023-02-15T19:32:32.017Z,1.70
2023-02-15T19:34:59.146Z,1.70
2023-02-15T19:37:46.511Z,1.70
2023-02-15T19:40:34.389Z,1.60
2023-02-15T19:43:02.397Z,1.60
2023-02-15T19:45:31.672Z,1.60
2023-02-15T19:48:01.612Z,1.50
2023-02-15T19:50:32.315Z,1.50
2023-02-15T19:52:59.871Z,1.50
2023-02-15T19:55:29.889Z,1.50
2023-02-15T19:57:58.495Z,1.50
2023-02-15T20:00:29.898Z,1.40
2023-02-15T20:02:59.173Z,1.40
2023-02-15T20:05:28.974Z,1.40
2023-02-15T20:07:56.736Z,1.40
2023-02-15T20:10:28.734Z,1.50
2023-02-15T20:12:56.734Z,1.50
2023-02-15T20:15:44.036Z,1.50
2023-02-15T20:18:12.085Z,1.50
2023-02-15T20:21:02.655Z,1.50
2023-02-15T20:23:33.817Z,1.50
2023-02-15T20:26:07.210Z,1.60
2023-02-15T20:28:34.234Z,1.70
2023-02-15T20:31:01.459Z,1.70
2023-02-15T20:33:28.593Z,1.70
2023-02-15T20:35:55.847Z,1.60
2023-02-15T20:38:28.531Z,1.60
2023-02-15T20:41:16.559Z,1.70
2023-02-15T20:43:43.774Z,1.70
2023-02-15T20:46:10.999Z,1.80
2023-02-15T20:48:38.010Z,1.80
2023-02-15T20:51:05.899Z,1.70
2023-02-15T20:53:33.651Z,1.70
2023-02-15T20:56:00.758Z,1.70
2023-02-15T20:58:30.087Z,1.70
2023-02-15T21:00:59.059Z,1.80
2023-02-15T21:03:30.872Z,1.80
2023-02-15T21:05:58.780Z,1.80
2023-02-15T21:08:27.062Z,1.80
2023-02-15T21:10:54.552Z,1.80
2023-02-15T21:13:41.567Z,1.90
2023-02-15T21:16:09.826Z,1.80
2023-02-15T21:18:38.954Z,1.80
2023-02-15T21:21:06.848Z,1.90
2023-02-15T21:23:36.842Z,1.90
2023-02-15T21:26:04.153Z,1.90
2023-02-15T21:28:31.835Z,1.90
2023-02-15T21:30:59.098Z,1.90
2023-02-15T21:33:27.166Z,1.90
2023-02-15T21:35:56.908Z,1.90
2023-02-15T21:38:28.601Z,1.90
2023-02-15T21:41:15.605Z,2.00
2023-02-15T21:44:02.486Z,2.00
2023-02-15T21:46:49.370Z,2.00
2023-02-15T21:49:16.346Z,2.00
2023-02-15T21:52:03.290Z,2.00
2023-02-15T21:54:30.308Z,2.00
2023-02-15T21:56:57.347Z,2.10
2023-02-15T21:59:27.352Z,2.00
2023-02-15T22:01:54.479Z,2.10
2023-02-15T22:04:59.355Z,2.10
2023-02-15T22:07:26.390Z,2.10
2023-02-15T22:09:54.410Z,2.10
2023-02-15T22:12:22.152Z,2.20
2023-02-15T22:14:53.586Z,2.20
2023-02-15T22:17:23.303Z,2.20
2023-02-15T22:19:50.717Z,2.10
2023-02-15T22:22:18.401Z,2.20
2023-02-15T22:24:46.027Z,2.20
2023-02-15T22:27:35.464Z,2.20
2023-02-15T22:30:03.037Z,2.20
2023-02-15T22:32:30.070Z,2.20
2023-02-15T22:34:57.090Z,2.20
2023-02-15T22:37:24.106Z,2.20
2023-02-15T22:39:51.193Z,2.20
2023-02-15T22:42:27.647Z,2.20
2023-02-15T22:44:56.269Z,2.20
2023-02-15T22:47:26.467Z,2.30
2023-02-15T22:49:54.974Z,2.30
2023-02-15T22:52:22.251Z,2.20
2023-02-15T22:54:49.225Z,2.20
2023-02-15T22:57:23.340Z,2.20
2023-02-15T22:59:50.417Z,2.20
2023-02-15T23:02:17.929Z,2.20
2023-02-15T23:04:44.915Z,2.20
2023-02-15T23:07:15.382Z,2.20
2023-02-15T23:09:42.750Z,2.20
2023-02-15T23:12:50.957Z,2.20
2023-02-15T23:15:18.092Z,2.20
2023-02-15T23:17:45.121Z,2.20
2023-02-15T23:20:15.256Z,2.10
2023-02-15T23:22:43.922Z,2.10
2023-02-15T23:25:12.237Z,2.10
2023-02-15T23:27:59.192Z,2.00
2023-02-15T23:30:26.489Z,2.00
2023-02-15T23:32:56.422Z,2.00
2023-02-15T23:35:23.732Z,2.10
2023-02-15T23:37:50.723Z,2.00
2023-02-15T23:40:39.537Z,2.00
2023-02-15T23:43:13.829Z,2.00
2023-02-15T23:45:40.843Z,2.00
2023-02-15T23:48:30.382Z,2.00
2023-02-15T23:50:57.904Z,2.00
2023-02-15T23:53:24.970Z,2.00
2023-02-15T23:55:51.978Z,1.90
2023-02-15T23:58:21.436Z,1.90
